Time;durP1;ratioP1;P1;durP2;ratioP2;P2;SDS_P1;SDS_P2;PMS_P1;PMS_P2;Temp;Humidity;BMP_temperature;BMP_pressure;BME280_temperature;BME280_humidity;BME280_pressure;Samples;Min_cycle;Max_cycle;Signal;HPM_P1;HPM_P2
2023/02/17 00:01:21;;;;;;;;;;;8.70;99.90;;;;;;5107818;27;19924;-77
2023/02/17 00:03:48;;;;;;;;;;;8.70;99.90;;;;;;5081167;28;19917;-78
2023/02/17 00:06:15;;;;;;;;;;;8.80;99.90;;;;;;5077431;28;19920;-77
2023/02/17 00:08:42;;;;;;;;;;;8.80;99.90;;;;;;5076405;28;19979;-78
2023/02/17 00:11:07;;;;;;;;;;;8.80;99.90;;;;;;5079698;28;19919;-77
2023/02/17 00:13:33;;;;;;;;;;;8.90;99.90;;;;;;5087906;28;19912;-77
2023/02/17 00:16:04;;;;;;;;;;;8.90;99.90;;;;;;5080186;28;19912;-77
2023/02/17 00:18:30;;;;;;;;;;;8.90;99.90;;;;;;5076954;28;19916;-78
2023/02/17 00:20:56;;;;;;;;;;;8.90;99.90;;;;;;5095193;28;20136;-77
2023/02/17 00:23:22;;;;;;;;;;;8.90;99.90;;;;;;5087935;28;20430;-77
2023/02/17 00:25:48;;;;;;;;;;;8.90;99.90;;;;;;5099659;28;20345;-77
2023/02/17 00:28:14;;;;;;;;;;;8.90;99.90;;;;;;5081060;28;19912;-77
2023/02/17 00:30:40;;;;;;;;;;;8.90;99.90;;;;;;5083069;28;19912;-78
2023/02/17 00:33:06;;;;;;;;;;;8.90;99.90;;;;;;5092551;28;19931;-77
2023/02/17 00:35:32;;;;;;;;;;;9.00;99.90;;;;;;5088951;28;19935;-77
2023/02/17 00:37:58;;;;;;;;;;;9.00;99.90;;;;;;5081613;28;19924;-77
2023/02/17 00:40:24;;;;;;;;;;;9.00;99.90;;;;;;5093659;28;19913;-77
2023/02/17 00:42:50;;;;;;;;;;;9.00;99.90;;;;;;5087953;28;19935;-77
2023/02/17 00:45:17;;;;;;;;;;;9.00;99.90;;;;;;5086874;28;19912;-77
2023/02/17 00:47:49;;;;;;;;;;;9.00;99.90;;;;;;5076100;28;20086;-78
2023/02/17 00:50:16;;;;;;;;;;;9.00;99.90;;;;;;5090863;28;19916;-78
2023/02/17 00:52:42;;;;;;;;;;;9.10;99.90;;;;;;5088059;28;20392;-78
2023/02/17 00:55:08;;;;;;;;;;;9.20;99.90;;;;;;5089044;28;19917;-78
2023/02/17 00:57:35;;;;;;;;;;;9.20;99.90;;;;;;5080931;28;19924;-78
2023/02/17 01:00:01;;;;;;;;;;;9.10;99.90;;;;;;5085001;28;20385;-78
2023/02/17 01:02:27;;;;;;;;;;;9.20;99.90;;;;;;5088986;28;19931;-78
2023/02/17 01:04:53;;;;;;;;;;;9.20;99.90;;;;;;5086216;28;19999;-78
2023/02/17 01:07:19;;;;;;;;;;;9.30;99.90;;;;;;5081245;28;20007;-78
2023/02/17 01:09:46;;;;;;;;;;;9.30;99.90;;;;;;5074098;28;19928;-78
2023/02/17 01:12:12;;;;;;;;;;;9.40;99.90;;;;;;5096068;28;20340;-78
2023/02/17 01:14:38;;;;;;;;;;;9.40;99.90;;;;;;5080961;28;19916;-79
2023/02/17 01:17:04;;;;;;;;;;;9.40;99.90;;;;;;5081325;28;19923;-78
2023/02/17 01:19:30;;;;;;;;;;;9.50;99.90;;;;;;5073391;28;19928;-77
2023/02/17 01:21:56;;;;;;;;;;;9.40;99.90;;;;;;5079423;28;20395;-78
2023/02/17 01:24:22;;;;;;;;;;;9.40;99.90;;;;;;5082662;28;19912;-78
2023/02/17 01:26:48;;;;;;;;;;;9.40;99.90;;;;;;5093140;28;19912;-78
2023/02/17 01:29:14;;;;;;;;;;;9.40;99.90;;;;;;5094700;28;20007;-77
2023/02/17 01:31:42;;;;;;;;;;;9.30;99.90;;;;;;5077310;28;19912;-78
2023/02/17 01:34:10;;;;;;;;;;;9.30;99.90;;;;;;5096943;28;19912;-77
2023/02/17 01:36:37;;;;;;;;;;;9.30;99.90;;;;;;5084645;28;19920;-77
2023/02/17 01:39:02;;;;;;;;;;;9.30;99.90;;;;;;5090496;28;19938;-77
2023/02/17 01:41:29;;;;;;;;;;;9.30;99.90;;;;;;5079210;28;19916;-77
2023/02/17 01:44:05;;;;;;;;;;;9.30;99.90;;;;;;5095473;28;19916;-77
2023/02/17 01:46:32;;;;;;;;;;;9.30;99.90;;;;;;5079818;28;19921;-77
2023/02/17 01:48:58;;;;;;;;;;;9.30;99.90;;;;;;5097337;28;19919;-77
2023/02/17 01:51:29;;;;;;;;;;;9.30;99.90;;;;;;5093557;28;19913;-77
2023/02/17 01:53:57;;;;;;;;;;;9.40;99.90;;;;;;5095362;28;19912;-77
2023/02/17 01:56:25;;;;;;;;;;;9.30;99.90;;;;;;5084394;28;19912;-77
2023/02/17 01:58:54;;;;;;;;;;;9.30;99.90;;;;;;5086314;28;19923;-77
2023/02/17 02:01:20;;;;;;;;;;;9.30;99.90;;;;;;5094844;28;19931;-77
2023/02/17 02:03:46;;;;;;;;;;;9.30;99.90;;;;;;5112643;27;19924;-77
2023/02/17 02:06:15;;;;;;;;;;;9.30;99.90;;;;;;5084668;28;19931;-77
2023/02/17 02:08:51;;;;;;;;;;;9.30;99.90;;;;;;5088332;28;19919;-78
2023/02/17 02:11:17;;;;;;;;;;;9.30;99.90;;;;;;5091795;28;20253;-77
2023/02/17 02:13:48;;;;;;;;;;;9.20;99.90;;;;;;5083327;28;19924;-77
2023/02/17 02:16:31;;;;;;;;;;;9.20;99.90;;;;;;5114452;27;19928;-77
2023/02/17 02:19:11;;;;;;;;;;;9.20;99.90;;;;;;5086168;28;19922;-77
2023/02/17 02:22:10;;;;;;;;;;;9.20;99.90;;;;;;5086054;28;19912;-78
2023/02/17 02:24:54;;;;;;;;;;;9.20;99.90;;;;;;5059658;28;19912;-78
2023/02/17 02:27:29;;;;;;;;;;;9.10;99.90;;;;;;5082581;28;20247;-78
2023/02/17 02:30:15;;;;;;;;;;;9.10;99.90;;;;;;5083478;28;19912;-77
2023/02/17 02:32:56;;;;;;;;;;;9.10;99.90;;;;;;5067874;28;19916;-79
2023/02/17 02:35:27;;;;;;;;;;;9.20;99.90;;;;;;5082681;28;20400;-78
2023/02/17 02:38:00;;;;;;;;;;;9.20;99.90;;;;;;5084004;28;19923;-77
2023/02/17 02:40:28;;;;;;;;;;;9.40;99.90;;;;;;5081421;28;19923;-78
2023/02/17 02:42:56;;;;;;;;;;;9.60;99.90;;;;;;5085300;28;19913;-78
2023/02/17 02:45:22;;;;;;;;;;;9.70;99.90;;;;;;5088123;28;19913;-78
2023/02/17 02:47:49;;;;;;;;;;;9.80;99.90;;;;;;5077105;28;19912;-78
2023/02/17 02:50:24;;;;;;;;;;;10.00;99.90;;;;;;5091621;28;20233;-78
2023/02/17 02:53:09;;;;;;;;;;;10.10;99.90;;;;;;5089075;28;19912;-77
2023/02/17 02:55:54;;;;;;;;;;;10.20;99.90;;;;;;5089622;28;19921;-78
2023/02/17 02:58:23;;;;;;;;;;;10.20;99.90;;;;;;5096621;27;19916;-78
2023/02/17 03:00:57;;;;;;;;;;;10.20;99.90;;;;;;5110320;27;19969;-78
2023/02/17 03:03:37;;;;;;;;;;;10.20;99.90;;;;;;5084548;28;19920;-79
2023/02/17 03:06:04;;;;;;;;;;;10.20;99.90;;;;;;5073377;28;19919;-78
2023/02/17 03:08:42;;;;;;;;;;;10.20;99.90;;;;;;5070690;28;19909;-78
2023/02/17 03:11:09;;;;;;;;;;;10.20;99.90;;;;;;5083243;28;20004;-78
2023/02/17 03:13:38;;;;;;;;;;;10.20;99.90;;;;;;5079910;28;19912;-78
2023/02/17 03:16:06;;;;;;;;;;;10.10;99.90;;;;;;5092068;28;19923;-78
2023/02/17 03:18:33;;;;;;;;;;;10.10;99.90;;;;;;5076896;28;19923;-78
2023/02/17 03:21:16;;;;;;;;;;;10.10;99.90;;;;;;5087529;28;19912;-77
2023/02/17 03:23:42;;;;;;;;;;;10.20;99.90;;;;;;5090896;28;19924;-78
2023/02/17 03:26:08;;;;;;;;;;;10.30;99.90;;;;;;5089242;28;19912;-78
2023/02/17 03:28:34;;;;;;;;;;;10.30;99.90;;;;;;5096998;28;19963;-78
2023/02/17 03:31:00;;;;;;;;;;;10.20;99.90;;;;;;5097602;28;19912;-78
2023/02/17 03:33:26;;;;;;;;;;;10.20;99.90;;;;;;5082810;28;19921;-78
2023/02/17 03:35:52;;;;;;;;;;;10.10;99.90;;;;;;5086197;28;19912;-78
2023/02/17 03:38:18;;;;;;;;;;;10.00;99.90;;;;;;5081653;28;19985;-78
2023/02/17 03:40:44;;;;;;;;;;;10.00;99.90;;;;;;5084672;28;20017;-78
2023/02/17 03:43:10;;;;;;;;;;;9.90;99.90;;;;;;5079778;28;20372;-78
2023/02/17 03:45:36;;;;;;;;;;;9.90;99.90;;;;;;5081970;28;19955;-78
2023/02/17 03:48:03;;;;;;;;;;;9.90;99.90;;;;;;5091156;28;19912;-78
2023/02/17 03:50:29;;;;;;;;;;;9.80;99.90;;;;;;5081142;28;19916;-78
2023/02/17 03:52:55;;;;;;;;;;;9.80;99.90;;;;;;5094828;28;19913;-78
2023/02/17 03:55:21;;;;;;;;;;;9.80;99.90;;;;;;5097455;28;19916;-77
2023/02/17 03:57:47;;;;;;;;;;;9.70;99.90;;;;;;5084500;28;19923;-78
2023/02/17 04:00:13;;;;;;;;;;;9.60;99.90;;;;;;5090078;28;19912;-78
2023/02/17 04:02:39;;;;;;;;;;;9.60;99.90;;;;;;5083006;28;19924;-78
2023/02/17 04:05:06;;;;;;;;;;;9.50;99.90;;;;;;5086299;28;19912;-79
2023/02/17 04:07:32;;;;;;;;;;;9.50;99.90;;;;;;5088652;28;19921;-78
2023/02/17 04:09:58;;;;;;;;;;;9.50;99.90;;;;;;5090327;28;19927;-78
2023/02/17 04:12:24;;;;;;;;;;;9.40;99.90;;;;;;5100612;28;19908;-78
2023/02/17 04:14:50;;;;;;;;;;;9.50;99.90;;;;;;5079749;28;20020;-78
2023/02/17 04:17:16;;;;;;;;;;;9.50;99.90;;;;;;5086679;28;20365;-77
2023/02/17 04:19:42;;;;;;;;;;;9.50;99.90;;;;;;5115467;27;19920;-78
2023/02/17 04:22:08;;;;;;;;;;;9.50;1.00;;;;;;5082321;28;20276;-77
2023/02/17 04:24:35;;;;;;;;;;;9.60;1.00;;;;;;5095612;28;19912;-77
2023/02/17 04:27:01;;;;;;;;;;;9.80;1.00;;;;;;5084452;28;19919;-78
2023/02/17 04:29:27;;;;;;;;;;;9.80;1.00;;;;;;5082943;28;19912;-78
2023/02/17 04:31:53;;;;;;;;;;;9.90;1.00;;;;;;5075439;28;19934;-78
2023/02/17 04:34:18;;;;;;;;;;;10.00;1.00;;;;;;5109444;27;20270;-78
2023/02/17 04:36:44;;;;;;;;;;;10.00;1.00;;;;;;5077319;28;19973;-77
2023/02/17 04:39:10;;;;;;;;;;;10.10;1.00;;;;;;5082032;28;19912;-77
2023/02/17 04:41:36;;;;;;;;;;;10.10;1.00;;;;;;5086002;28;20296;-78
2023/02/17 04:44:02;;;;;;;;;;;10.10;1.00;;;;;;5077699;28;20391;-77
2023/02/17 04:46:28;;;;;;;;;;;10.00;1.00;;;;;;5090855;28;20318;-76
2023/02/17 04:48:54;;;;;;;;;;;10.00;1.00;;;;;;5092786;28;19952;-77
2023/02/17 04:51:20;;;;;;;;;;;10.00;1.00;;;;;;5081366;28;19954;-78
2023/02/17 04:53:46;;;;;;;;;;;10.10;1.00;;;;;;5075320;28;19938;-77
2023/02/17 04:56:12;;;;;;;;;;;10.10;1.00;;;;;;5082718;28;19916;-77
2023/02/17 04:58:38;;;;;;;;;;;10.10;1.00;;;;;;5091280;28;19934;-77
2023/02/17 05:01:04;;;;;;;;;;;10.10;1.00;;;;;;5082802;28;19971;-78
2023/02/17 05:03:30;;;;;;;;;;;10.10;1.00;;;;;;5085334;28;19916;-78
2023/02/17 05:05:56;;;;;;;;;;;10.10;1.00;;;;;;5103657;28;19916;-79
2023/02/17 05:08:22;;;;;;;;;;;10.20;1.00;;;;;;5074802;28;19912;-78
2023/02/17 05:10:51;;;;;;;;;;;10.20;1.00;;;;;;5084740;28;19953;-78
2023/02/17 05:13:18;;;;;;;;;;;10.20;1.00;;;;;;5084114;28;20362;-79
2023/02/17 05:15:44;;;;;;;;;;;10.10;1.00;;;;;;5074855;28;19919;-78
2023/02/17 05:18:10;;;;;;;;;;;10.10;1.00;;;;;;5082568;28;20130;-78
2023/02/17 05:20:36;;;;;;;;;;;10.10;1.00;;;;;;5083736;28;19920;-78
2023/02/17 05:23:02;;;;;;;;;;;10.10;1.00;;;;;;5089845;28;20413;-78
2023/02/17 05:25:28;;;;;;;;;;;10.10;1.00;;;;;;5091066;28;19908;-79
2023/02/17 05:27:54;;;;;;;;;;;10.10;1.00;;;;;;5115368;27;19962;-79
2023/02/17 05:30:20;;;;;;;;;;;10.10;1.00;;;;;;5092841;28;19920;-78
2023/02/17 05:32:46;;;;;;;;;;;10.10;1.00;;;;;;5094861;28;19928;-80
2023/02/17 05:35:13;;;;;;;;;;;10.10;1.00;;;;;;5078162;28;19908;-80
2023/02/17 05:37:38;;;;;;;;;;;10.10;1.00;;;;;;5094261;28;19916;-79
2023/02/17 05:40:05;;;;;;;;;;;10.10;1.00;;;;;;5080292;28;19913;-79
2023/02/17 05:42:31;;;;;;;;;;;10.10;1.00;;;;;;5084617;28;19919;-80
2023/02/17 05:44:57;;;;;;;;;;;10.10;1.00;;;;;;5093611;28;20007;-79
2023/02/17 05:47:23;;;;;;;;;;;10.10;1.00;;;;;;5096493;28;19963;-80
2023/02/17 05:49:49;;;;;;;;;;;10.20;1.00;;;;;;5088791;28;19999;-79
2023/02/17 05:52:17;;;;;;;;;;;10.10;1.00;;;;;;5073239;28;19991;-78
2023/02/17 05:54:43;;;;;;;;;;;10.10;1.00;;;;;;5093233;28;19913;-79
2023/02/17 05:57:09;;;;;;;;;;;10.10;1.00;;;;;;5091040;28;19916;-78
2023/02/17 05:59:36;;;;;;;;;;;10.10;1.00;;;;;;5089014;28;19924;-78
2023/02/17 06:02:02;;;;;;;;;;;10.10;1.00;;;;;;5092359;28;19920;-79
2023/02/17 06:04:28;;;;;;;;;;;10.20;1.00;;;;;;5088660;28;19972;-79
2023/02/17 06:06:54;;;;;;;;;;;10.10;1.00;;;;;;5117506;27;19920;-80
2023/02/17 06:09:20;;;;;;;;;;;10.10;1.00;;;;;;5093840;28;19916;-79
2023/02/17 06:11:46;;;;;;;;;;;10.10;1.00;;;;;;5094914;28;20388;-79
2023/02/17 06:14:12;;;;;;;;;;;10.10;1.00;;;;;;5085818;28;20491;-79
2023/02/17 06:16:38;;;;;;;;;;;10.00;1.00;;;;;;5082151;28;19916;-80
2023/02/17 06:19:04;;;;;;;;;;;10.10;1.00;;;;;;5100116;28;19916;-81
2023/02/17 06:21:30;;;;;;;;;;;10.00;1.00;;;;;;5084648;28;20360;-78
2023/02/17 06:23:56;;;;;;;;;;;10.00;1.00;;;;;;5073655;28;19916;-81
2023/02/17 06:26:22;;;;;;;;;;;10.00;1.00;;;;;;5109531;27;19990;-80
2023/02/17 06:28:48;;;;;;;;;;;10.00;1.00;;;;;;5092891;28;19990;-80
2023/02/17 06:31:14;;;;;;;;;;;9.90;1.00;;;;;;5085788;28;20135;-80
2023/02/17 06:33:40;;;;;;;;;;;9.90;1.00;;;;;;5080679;28;20247;-81
2023/02/17 06:36:06;;;;;;;;;;;9.90;1.00;;;;;;5091067;28;19990;-81
2023/02/17 06:38:32;;;;;;;;;;;9.90;1.00;;;;;;5080356;28;19917;-82
2023/02/17 06:40:58;;;;;;;;;;;9.90;1.00;;;;;;5091661;28;19987;-83
2023/02/17 06:43:24;;;;;;;;;;;9.80;1.00;;;;;;5082405;28;20396;-78
2023/02/17 06:45:50;;;;;;;;;;;9.90;1.00;;;;;;5080469;28;20029;-81
2023/02/17 06:48:16;;;;;;;;;;;9.90;1.00;;;;;;5088846;28;19916;-82
2023/02/17 06:50:42;;;;;;;;;;;9.80;1.00;;;;;;5082308;28;19927;-81
2023/02/17 06:53:08;;;;;;;;;;;9.80;1.00;;;;;;5093319;28;19916;-82
2023/02/17 06:55:36;;;;;;;;;;;9.90;1.00;;;;;;5084174;28;19912;-83
2023/02/17 06:58:02;;;;;;;;;;;9.90;1.00;;;;;;5093636;28;19935;-81
2023/02/17 07:00:28;;;;;;;;;;;9.80;1.00;;;;;;5084903;28;19916;-83
2023/02/17 07:02:54;;;;;;;;;;;9.80;1.00;;;;;;5086859;28;19939;-84
2023/02/17 07:05:20;;;;;;;;;;;9.90;1.00;;;;;;5117421;27;19912;-80
2023/02/17 07:07:46;;;;;;;;;;;9.90;1.00;;;;;;5093739;28;19923;-80
2023/02/17 07:10:12;;;;;;;;;;;9.90;1.00;;;;;;5083070;28;19915;-81
2023/02/17 07:12:38;;;;;;;;;;;9.90;1.00;;;;;;5082076;28;20396;-80
2023/02/17 07:15:04;;;;;;;;;;;9.90;1.00;;;;;;5088773;28;19912;-80
2023/02/17 07:17:30;;;;;;;;;;;9.90;1.00;;;;;;5097340;28;19929;-82
2023/02/17 07:19:56;;;;;;;;;;;9.90;1.00;;;;;;5079502;28;19928;-84
2023/02/17 07:22:24;;;;;;;;;;;9.90;1.00;;;;;;5096255;28;20349;-81
2023/02/17 07:24:50;;;;;;;;;;;9.90;1.00;;;;;;5091359;28;19912;-80
2023/02/17 07:27:16;;;;;;;;;;;9.90;1.00;;;;;;5090516;28;19912;-81
2023/02/17 07:29:42;;;;;;;;;;;9.80;1.00;;;;;;5092099;28;19916;-82
2023/02/17 07:32:08;;;;;;;;;;;9.80;1.00;;;;;;5071360;28;20357;-81
2023/02/17 07:34:34;;;;;;;;;;;9.80;1.00;;;;;;5087338;28;20362;-79
2023/02/17 07:37:00;;;;;;;;;;;9.80;1.00;;;;;;5086429;28;19956;-80
2023/02/17 07:39:26;;;;;;;;;;;9.80;1.00;;;;;;5093868;28;19970;-80
2023/02/17 07:41:52;;;;;;;;;;;9.80;1.00;;;;;;5095243;28;20351;-79
2023/02/17 07:44:18;;;;;;;;;;;9.80;1.00;;;;;;5082879;28;19920;-74
2023/02/17 07:46:44;;;;;;;;;;;9.80;1.00;;;;;;5090840;28;19923;-74
2023/02/17 07:49:10;;;;;;;;;;;9.70;1.00;;;;;;5081618;28;20336;-74
2023/02/17 07:51:36;;;;;;;;;;;9.80;1.00;;;;;;5087878;28;19917;-75
2023/02/17 07:54:02;;;;;;;;;;;9.80;1.00;;;;;;5067696;28;19920;-75
2023/02/17 07:56:28;;;;;;;;;;;9.70;1.00;;;;;;5080661;28;19916;-75
2023/02/17 07:58:54;;;;;;;;;;;9.70;1.00;;;;;;5087635;28;19924;-75
2023/02/17 08:01:22;;;;;;;;;;;9.70;1.00;;;;;;5077313;28;19921;-75
2023/02/17 08:03:49;;;;;;;;;;;9.70;1.00;;;;;;5091743;28;19923;-74
2023/02/17 08:06:16;;;;;;;;;;;9.70;1.00;;;;;;5076786;28;19919;-76
2023/02/17 08:14:12;;;;;;;;;;;9.70;1.00;;;;;;5076110;28;19935;-75
2023/02/17 08:16:38;;;;;;;;;;;9.80;1.00;;;;;;5080107;28;19912;-74
2023/02/17 08:19:04;;;;;;;;;;;9.80;1.00;;;;;;5083743;28;19917;-75
2023/02/17 08:21:29;;;;;;;;;;;9.80;1.00;;;;;;5090503;28;20007;-76
2023/02/17 08:23:55;;;;;;;;;;;9.80;1.00;;;;;;5088924;28;19912;-75
2023/02/17 08:26:22;;;;;;;;;;;9.90;1.00;;;;;;5080265;28;19916;-76
2023/02/17 08:28:50;;;;;;;;;;;9.90;1.00;;;;;;5082075;28;20261;-75
2023/02/17 08:31:27;;;;;;;;;;;9.90;1.00;;;;;;5069988;28;20016;-75
2023/02/17 08:33:53;;;;;;;;;;;10.00;1.00;;;;;;5079190;28;20365;-76
2023/02/17 08:36:23;;;;;;;;;;;10.00;1.00;;;;;;5087402;28;20380;-73
2023/02/17 08:38:50;;;;;;;;;;;10.10;1.00;;;;;;5078530;28;19915;-76
2023/02/17 08:41:21;;;;;;;;;;;10.10;1.00;;;;;;5098309;28;19916;-76
2023/02/17 08:43:47;;;;;;;;;;;10.20;1.00;;;;;;5089520;28;19919;-73
2023/02/17 08:46:14;;;;;;;;;;;10.20;1.00;;;;;;5084638;28;20103;-75
2023/02/17 08:48:40;;;;;;;;;;;10.30;1.00;;;;;;5084524;28;19916;-76
2023/02/17 08:51:07;;;;;;;;;;;10.30;1.00;;;;;;5087007;28;19916;-74
2023/02/17 08:53:33;;;;;;;;;;;10.30;1.00;;;;;;5084098;28;19912;-76
2023/02/17 08:55:59;;;;;;;;;;;10.40;1.00;;;;;;5082112;28;19912;-77
2023/02/17 08:58:25;;;;;;;;;;;10.40;1.00;;;;;;5089295;28;20281;-76
2023/02/17 09:00:51;;;;;;;;;;;10.40;1.00;;;;;;5092353;28;19932;-76
2023/02/17 09:03:17;;;;;;;;;;;10.40;1.00;;;;;;5092808;28;19967;-75
2023/02/17 09:05:43;;;;;;;;;;;10.40;1.00;;;;;;5083532;28;19912;-77
2023/02/17 09:08:09;;;;;;;;;;;10.40;1.00;;;;;;5090385;28;19922;-76
2023/02/17 09:10:36;;;;;;;;;;;10.40;1.00;;;;;;5093238;28;19912;-75
2023/02/17 09:13:02;;;;;;;;;;;10.50;1.00;;;;;;5083887;28;20397;-75
2023/02/17 09:15:28;;;;;;;;;;;10.40;1.00;;;;;;5084514;28;19908;-76
2023/02/17 09:17:54;;;;;;;;;;;10.40;1.00;;;;;;5083501;28;19916;-75
2023/02/17 09:20:20;;;;;;;;;;;10.50;1.00;;;;;;5078512;28;20369;-76
2023/02/17 09:22:46;;;;;;;;;;;10.50;1.00;;;;;;5098193;27;19916;-77
2023/02/17 09:25:12;;;;;;;;;;;10.50;1.00;;;;;;5087929;28;19908;-76
2023/02/17 09:27:38;;;;;;;;;;;10.60;1.00;;;;;;5092607;28;19955;-76
2023/02/17 09:30:05;;;;;;;;;;;10.60;1.00;;;;;;5083454;28;19954;-77
2023/02/17 09:32:30;;;;;;;;;;;10.60;1.00;;;;;;5077361;28;19919;-76
2023/02/17 09:34:57;;;;;;;;;;;10.60;1.00;;;;;;5082605;28;19999;-77
2023/02/17 09:37:23;;;;;;;;;;;10.60;1.00;;;;;;5080936;28;19922;-77
2023/02/17 09:39:49;;;;;;;;;;;10.60;1.00;;;;;;5095652;28;19916;-75
2023/02/17 09:42:26;;;;;;;;;;;10.60;1.00;;;;;;5089388;28;20372;-75
2023/02/17 09:44:55;;;;;;;;;;;10.50;1.00;;;;;;5093656;28;20265;-74
2023/02/17 09:47:23;;;;;;;;;;;10.40;1.00;;;;;;5096764;28;19930;-75
2023/02/17 09:49:55;;;;;;;;;;;10.30;1.00;;;;;;5094178;28;19912;-77
2023/02/17 09:52:26;;;;;;;;;;;10.30;1.00;;;;;;5095556;28;19919;-77
2023/02/17 09:54:58;;;;;;;;;;;10.40;1.00;;;;;;5086927;28;20280;-77
2023/02/17 09:57:27;;;;;;;;;;;10.40;1.00;;;;;;5087714;28;19923;-77
2023/02/17 09:59:57;;;;;;;;;;;10.40;1.00;;;;;;5087026;28;19912;-77
2023/02/17 10:02:26;;;;;;;;;;;10.50;1.00;;;;;;5084567;28;19924;-77
2023/02/17 10:04:53;;;;;;;;;;;10.50;1.00;;;;;;5084738;28;19913;-77
2023/02/17 10:07:27;;;;;;;;;;;10.60;1.00;;;;;;5085058;28;19911;-76
2023/02/17 10:10:01;;;;;;;;;;;10.60;1.00;;;;;;5094498;28;19919;-77
2023/02/17 10:12:32;;;;;;;;;;;10.70;1.00;;;;;;5082930;28;20384;-77
2023/02/17 10:15:00;;;;;;;;;;;10.70;1.00;;;;;;5080366;28;19913;-77
2023/02/17 10:17:31;;;;;;;;;;;10.70;1.00;;;;;;5084745;28;19924;-77
2023/02/17 10:20:01;;;;;;;;;;;10.70;1.00;;;;;;5090173;28;19927;-75
2023/02/17 10:22:29;;;;;;;;;;;10.70;1.00;;;;;;5083242;28;19920;-76
2023/02/17 10:24:55;;;;;;;;;;;10.80;1.00;;;;;;5085944;28;19908;-75
2023/02/17 10:27:28;;;;;;;;;;;10.90;1.00;;;;;;5087928;28;20269;-76
2023/02/17 10:30:11;;;;;;;;;;;11.00;1.00;;;;;;5081938;28;20399;-77
2023/02/17 10:32:55;;;;;;;;;;;10.90;1.00;;;;;;5087763;28;19920;-77
2023/02/17 10:35:26;;;;;;;;;;;10.90;1.00;;;;;;5076892;28;19912;-77
2023/02/17 10:38:05;;;;;;;;;;;10.90;1.00;;;;;;5090187;28;19916;-77
2023/02/17 10:40:31;;;;;;;;;;;10.90;1.00;;;;;;5125982;27;19983;-77
2023/02/17 10:42:59;;;;;;;;;;;10.90;1.00;;;;;;5084531;28;20482;-77
2023/02/17 10:45:29;;;;;;;;;;;10.90;1.00;;;;;;5084983;28;20404;-77
2023/02/17 10:48:16;;;;;;;;;;;11.00;1.00;;;;;;5077661;28;19913;-77
2023/02/17 10:50:42;;;;;;;;;;;11.10;1.00;;;;;;5088014;28;20357;-77
2023/02/17 10:53:20;;;;;;;;;;;11.10;1.00;;;;;;5079445;28;20285;-77
2023/02/17 10:55:46;;;;;;;;;;;11.20;1.00;;;;;;5076355;28;19930;-77
2023/02/17 10:58:14;;;;;;;;;;;11.30;1.00;;;;;;5098992;27;20312;-77
2023/02/17 11:00:41;;;;;;;;;;;11.30;1.00;;;;;;5087730;28;20357;-77
2023/02/17 11:03:17;;;;;;;;;;;11.40;1.00;;;;;;5080873;28;19913;-77
2023/02/17 11:05:44;;;;;;;;;;;11.40;1.00;;;;;;5088012;28;19913;-77
2023/02/17 11:08:39;;;;;;;;;;;11.40;1.00;;;;;;5083400;28;19912;-77
2023/02/17 11:11:19;;;;;;;;;;;11.40;1.00;;;;;;5039665;28;19913;-77
2023/02/17 11:13:48;;;;;;;;;;;11.50;1.00;;;;;;5090998;28;20276;-77
2023/02/17 11:16:27;;;;;;;;;;;11.50;1.00;;;;;;5086823;28;19923;-77
2023/02/17 11:18:54;;;;;;;;;;;11.60;1.00;;;;;;5094020;28;19916;-77
2023/02/17 11:21:20;;;;;;;;;;;11.70;1.00;;;;;;5083161;28;19923;-76
2023/02/17 11:24:05;;;;;;;;;;;11.70;1.00;;;;;;5082347;28;19917;-77
2023/02/17 11:26:33;;;;;;;;;;;11.80;1.00;;;;;;5090260;28;19912;-76
2023/02/17 11:29:16;;;;;;;;;;;11.90;1.00;;;;;;5080785;28;20277;-76
2023/02/17 11:31:52;;;;;;;;;;;11.90;1.00;;;;;;5080274;28;19917;-77
2023/02/17 11:34:20;;;;;;;;;;;11.90;1.00;;;;;;5093518;28;19913;-75
2023/02/17 11:36:55;;;;;;;;;;;11.90;1.00;;;;;;5090918;28;19920;-74
2023/02/17 11:39:21;;;;;;;;;;;11.90;1.00;;;;;;5094136;28;19917;-74
2023/02/17 11:41:47;;;;;;;;;;;12.10;1.00;;;;;;5090316;28;20345;-75
2023/02/17 11:44:40;;;;;;;;;;;12.10;1.00;;;;;;5098454;28;19919;-74
2023/02/17 11:47:26;;;;;;;;;;;12.30;1.00;;;;;;5085030;28;19916;-75
2023/02/17 11:50:03;;;;;;;;;;;12.40;1.00;;;;;;5081197;28;19920;-76
2023/02/17 11:52:41;;;;;;;;;;;12.50;1.00;;;;;;5076555;27;20370;-76
2023/02/17 11:55:08;;;;;;;;;;;12.50;1.00;;;;;;5082544;28;19912;-76
2023/02/17 11:57:41;;;;;;;;;;;12.50;1.00;;;;;;5084172;28;19918;-75
2023/02/17 12:00:10;;;;;;;;;;;12.50;1.00;;;;;;5083050;28;19917;-77
2023/02/17 12:02:48;;;;;;;;;;;12.50;1.00;;;;;;5081337;28;19920;-77
2023/02/17 12:05:20;;;;;;;;;;;12.50;1.00;;;;;;5087686;28;19919;-76
2023/02/17 12:08:06;;;;;;;;;;;12.60;1.00;;;;;;5089728;28;19923;-76
2023/02/17 12:10:51;;;;;;;;;;;12.60;1.00;;;;;;5061057;28;19920;-76
2023/02/17 12:13:17;;;;;;;;;;;12.60;1.00;;;;;;5111549;28;19914;-79
2023/02/17 12:15:58;;;;;;;;;;;12.70;1.00;;;;;;5106640;28;19972;-77
2023/02/17 12:18:26;;;;;;;;;;;12.80;1.00;;;;;;5097871;28;19931;-77
2023/02/17 12:21:15;;;;;;;;;;;12.80;1.00;;;;;;5108540;28;19913;-76
2023/02/17 12:23:53;;;;;;;;;;;13.00;1.00;;;;;;5086585;28;19912;-76
2023/02/17 12:26:35;;;;;;;;;;;13.00;1.00;;;;;;5093820;28;19912;-75
2023/02/17 12:29:20;;;;;;;;;;;13.10;1.00;;;;;;5081862;28;19919;-76
2023/02/17 12:32:06;;;;;;;;;;;13.10;1.00;;;;;;5081762;28;19916;-76
2023/02/17 12:34:38;;;;;;;;;;;13.30;1.00;;;;;;5067501;28;19912;-75
2023/02/17 12:37:05;;;;;;;;;;;13.50;99.90;;;;;;5084883;28;19919;-76
2023/02/17 12:39:41;;;;;;;;;;;13.80;99.90;;;;;;5098492;28;19923;-76
2023/02/17 12:42:13;;;;;;;;;;;13.90;99.90;;;;;;5113632;28;19916;-78
2023/02/17 12:44:48;;;;;;;;;;;13.90;99.90;;;;;;5133430;27;19903;-77
2023/02/17 12:47:16;;;;;;;;;;;13.90;99.90;;;;;;5108977;28;19918;-76
2023/02/17 12:49:46;;;;;;;;;;;13.80;99.90;;;;;;5111361;28;19896;-77
2023/02/17 12:52:16;;;;;;;;;;;14.00;99.90;;;;;;5111767;28;19923;-77
2023/02/17 12:54:56;;;;;;;;;;;14.10;99.90;;;;;;5105920;28;19922;-77
2023/02/17 12:57:39;;;;;;;;;;;14.40;99.90;;;;;;5108722;28;19904;-78
2023/02/17 13:00:19;;;;;;;;;;;14.40;99.90;;;;;;5094883;28;19916;-76
2023/02/17 13:02:45;;;;;;;;;;;14.40;99.90;;;;;;5094183;28;19927;-76
2023/02/17 13:05:20;;;;;;;;;;;14.30;99.90;;;;;;5090616;28;20288;-75
2023/02/17 13:07:55;;;;;;;;;;;14.10;99.90;;;;;;5090151;28;19916;-74
2023/02/17 13:10:28;;;;;;;;;;;14.00;99.90;;;;;;5089741;28;19912;-73
2023/02/17 13:13:06;;;;;;;;;;;14.00;99.90;;;;;;5090166;28;19982;-73
2023/02/17 13:15:34;;;;;;;;;;;14.00;99.90;;;;;;5089923;28;19912;-72
2023/02/17 13:18:02;;;;;;;;;;;13.90;99.90;;;;;;5091190;28;19912;-72
2023/02/17 13:20:37;;;;;;;;;;;13.90;99.90;;;;;;5091224;28;19920;-73
2023/02/17 13:23:05;;;;;;;;;;;13.80;99.90;;;;;;5091872;28;20281;-76
2023/02/17 13:25:32;;;;;;;;;;;13.90;99.90;;;;;;5096032;28;19908;-79
2023/02/17 13:28:00;;;;;;;;;;;14.00;99.90;;;;;;5096254;28;20377;-78
2023/02/17 13:30:26;;;;;;;;;;;14.00;99.90;;;;;;5092783;28;19935;-80
2023/02/17 13:33:03;;;;;;;;;;;14.00;99.90;;;;;;5092387;28;19983;-76
2023/02/17 13:35:34;;;;;;;;;;;14.00;99.90;;;;;;5093276;28;19931;-75
2023/02/17 13:38:00;;;;;;;;;;;13.90;99.90;;;;;;5090048;28;19917;-77
2023/02/17 13:40:29;;;;;;;;;;;13.80;99.90;;;;;;5084566;28;19920;-76
2023/02/17 13:42:56;;;;;;;;;;;13.80;99.90;;;;;;5080353;28;19912;-76
2023/02/17 13:45:32;;;;;;;;;;;13.80;99.90;;;;;;5114389;27;19909;-76
2023/02/17 13:47:59;;;;;;;;;;;13.90;99.90;;;;;;5082952;28;20253;-77
2023/02/17 13:50:28;;;;;;;;;;;13.90;99.90;;;;;;5090945;28;19916;-79
2023/02/17 13:52:54;;;;;;;;;;;14.00;99.90;;;;;;5093072;28;19923;-73
2023/02/17 13:55:22;;;;;;;;;;;13.90;99.90;;;;;;5082783;28;19919;-72
2023/02/17 13:57:58;;;;;;;;;;;13.80;99.90;;;;;;5093399;28;19916;-72
2023/02/17 14:00:27;;;;;;;;;;;13.80;99.90;;;;;;5092616;28;19927;-73
2023/02/17 14:02:54;;;;;;;;;;;13.60;99.90;;;;;;5098686;28;19928;-74
2023/02/17 14:05:25;;;;;;;;;;;13.60;99.90;;;;;;5085493;28;19916;-73
2023/02/17 14:07:52;;;;;;;;;;;13.40;99.90;;;;;;5090070;28;19920;-73
2023/02/17 14:10:23;;;;;;;;;;;13.40;99.90;;;;;;5091950;28;19912;-73
2023/02/17 14:12:49;;;;;;;;;;;13.40;99.90;;;;;;5086171;28;19920;-76
2023/02/17 14:15:19;;;;;;;;;;;13.30;99.90;;;;;;5076382;28;20365;-73
2023/02/17 14:17:45;;;;;;;;;;;13.10;99.90;;;;;;5095228;28;19916;-74
2023/02/17 14:20:23;;;;;;;;;;;13.00;1.00;;;;;;5082414;28;19931;-74
2023/02/17 14:22:57;;;;;;;;;;;13.00;1.00;;;;;;5087425;28;20234;-73
2023/02/17 14:25:28;;;;;;;;;;;13.00;1.00;;;;;;5079085;28;19935;-73
2023/02/17 14:27:55;;;;;;;;;;;12.90;1.00;;;;;;5086285;28;20277;-73
2023/02/17 14:30:28;;;;;;;;;;;12.90;1.00;;;;;;5085931;28;19923;-73
2023/02/17 14:33:05;;;;;;;;;;;12.80;1.00;;;;;;5079156;28;19920;-72
2023/02/17 14:35:31;;;;;;;;;;;12.80;1.00;;;;;;5116299;27;20361;-73
2023/02/17 14:38:07;;;;;;;;;;;12.70;1.00;;;;;;5079655;28;20381;-72
2023/02/17 14:40:33;;;;;;;;;;;12.60;1.00;;;;;;5077921;28;19923;-74
2023/02/17 14:42:59;;;;;;;;;;;12.60;1.00;;;;;;5088798;28;19924;-75
2023/02/17 14:45:25;;;;;;;;;;;12.50;1.00;;;;;;5075676;28;19916;-75